Главная страница
METAR-TAF:

METAR-TAF

Аэропорты :

Оденсе, Дания

широта: 55-29N, долгота: 010-20E, высота над уровнем моря: 17 м

Текущие метеонаблюдения

Эта сводка был подготовлена 9 часа и 35 минут назад, в 16:50 UTC
Ветер 3 Узел от юго-западный
Температура 16°C
Влажность 94%
Давление 1018 hPa
Видимость: 7000 м
небольшая облачность на высоте 3000 фута
Рассеянная облачность на высоте 14000 фута

METAR: EKOD 171650Z 23003KT 7000 FEW030 BKN140 16/15 Q1018

Время: 04:25 (02:25 UTC)

Прогноз

Эта сводка был подготовлена 14 часа и 29 минут назад, в 11:56 UTC
Прогноз действительный с 17-го 12 UTC до 17-го 18 UTC
Ветер 8 Узел от южный-юго-западный
Видимость 10 км и более
Отдельные облака на высоте 2000 фута
изменения
С 17-го 16 UTC до 17-го 18 UTC
Видимость: 3000 м
дымка

TAF: EKOD 171156Z 1712/1718 20008KT 9999 SCT020 BECMG 1716/1718 3000 BR

Метеонаблюдения и прогнозы для более 4000 аэропортов (сводки METAR и TAF).

Имеющиеся станции представлены на карте желтыми и красными точками.

Чтобы увидеть название станции, наведите на нее мышь.

Затем щелкните, чтобы увидеть метеонаблюдения и метеопрогнозы.

Управление картой: чтобы увеличить масштаб, щелкните зеленые кнопки с черным крестиком; чтобы уменьшить масштаб, щелкните зеленую кнопку с тире; для просмотра соседних карт щелкайте зеленые стрелки.


METAR-TAF: